Time;durP1;ratioP1;P1;durP2;ratioP2;P2;SDS_P1;SDS_P2;PMS_P1;PMS_P2;Temp;Humidity;BMP_temperature;BMP_pressure;BME280_temperature;BME280_humidity;BME280_pressure;Samples;Min_cycle;Max_cycle;Signal;HPM_P1;HPM_P2
2023/08/21 00:01:27;;;;;;;5.43;4.47;;;;;;;;;;5042545;28;20515;-81
2023/08/21 00:03:54;;;;;;;4.72;4.05;;;;;;;;;;5045727;28;20432;-82
2023/08/21 00:06:23;;;;;;;6.03;4.25;;;;;;;;;;5053581;28;20450;-82
2023/08/21 00:08:50;;;;;;;4.47;3.75;;;;;;;;;;5041656;28;20567;-82
2023/08/21 00:11:17;;;;;;;4.33;3.90;;;;;;;;;;5042700;28;20424;-83
2023/08/21 00:13:47;;;;;;;5.47;4.13;;;;;;;;;;5045644;28;21437;-83
2023/08/21 00:16:14;;;;;;;7.68;4.18;;;;;;;;;;5057692;28;20987;-82
2023/08/21 00:18:42;;;;;;;4.67;4.10;;;;;;;;;;5039651;28;20429;-82
2023/08/21 00:21:09;;;;;;;5.07;4.35;;;;;;;;;;5059504;28;20518;-82
2023/08/21 00:23:36;;;;;;;6.47;4.13;;;;;;;;;;5040694;28;21029;-82
2023/08/21 00:26:03;;;;;;;5.03;4.47;;;;;;;;;;5041546;28;20445;-82
2023/08/21 00:28:33;;;;;;;6.13;4.28;;;;;;;;;;5060801;28;20763;-82
2023/08/21 00:31:00;;;;;;;7.68;4.43;;;;;;;;;;5040993;28;20462;-82
2023/08/21 00:33:28;;;;;;;6.03;4.28;;;;;;;;;;5059869;28;20498;-82
2023/08/21 00:35:55;;;;;;;4.47;4.05;;;;;;;;;;5045425;28;20514;-82
2023/08/21 00:38:23;;;;;;;7.13;3.95;;;;;;;;;;5041523;28;20481;-82
2023/08/21 00:40:53;;;;;;;5.13;4.32;;;;;;;;;;5040877;28;21022;-82
2023/08/21 00:43:21;;;;;;;6.17;4.73;;;;;;;;;;5036611;28;20427;-81
2023/08/21 00:45:49;;;;;;;7.43;4.35;;;;;;;;;;5040980;28;20432;-82
2023/08/21 00:48:16;;;;;;;5.45;4.65;;;;;;;;;;5042527;28;20435;-83
2023/08/21 00:50:50;;;;;;;4.80;4.30;;;;;;;;;;5060798;28;20877;-82
2023/08/21 00:53:18;;;;;;;5.65;4.18;;;;;;;;;;5038127;28;20439;-82
2023/08/21 00:55:45;;;;;;;4.80;4.35;;;;;;;;;;5042251;28;20519;-82
2023/08/21 00:58:13;;;;;;;7.13;5.50;;;;;;;;;;5042659;28;20957;-83
2023/08/21 01:00:41;;;;;;;6.78;4.90;;;;;;;;;;5040811;28;20432;-83
2023/08/21 01:03:08;;;;;;;7.37;5.07;;;;;;;;;;5039958;28;20462;-83
2023/08/21 01:05:36;;;;;;;6.32;5.07;;;;;;;;;;5040956;28;20445;-82
2023/08/21 01:08:08;;;;;;;6.22;4.65;;;;;;;;;;5038924;28;20439;-82
2023/08/21 01:10:39;;;;;;;5.43;4.93;;;;;;;;;;5056485;28;20495;-83
2023/08/21 01:13:22;;;;;;;6.03;4.68;;;;;;;;;;5056563;28;20520;-82
2023/08/21 01:15:51;;;;;;;7.78;5.10;;;;;;;;;;5059619;28;20428;-82
2023/08/21 01:18:18;;;;;;;5.75;4.93;;;;;;;;;;5059245;28;20435;-83
2023/08/21 01:20:46;;;;;;;7.88;4.93;;;;;;;;;;5060485;28;21015;-83
2023/08/21 01:23:32;;;;;;;7.10;4.93;;;;;;;;;;5040806;28;20515;-82
2023/08/21 01:26:00;;;;;;;5.43;4.93;;;;;;;;;;5041900;28;20439;-82
2023/08/21 01:28:27;;;;;;;6.95;5.85;;;;;;;;;;5042682;28;20498;-83
2023/08/21 01:31:13;;;;;;;6.78;5.40;;;;;;;;;;5056291;28;20528;-82
2023/08/21 01:33:48;;;;;;;7.50;5.72;;;;;;;;;;5057742;28;20496;-82
2023/08/21 01:36:16;;;;;;;8.07;5.38;;;;;;;;;;5039825;28;20440;-82
2023/08/21 01:38:43;;;;;;;5.25;4.75;;;;;;;;;;5041904;28;20439;-82
2023/08/21 01:41:11;;;;;;;6.05;4.80;;;;;;;;;;5038380;28;20431;-83
2023/08/21 01:43:38;;;;;;;6.05;5.00;;;;;;;;;;5041476;28;20427;-82
2023/08/21 01:46:07;;;;;;;7.55;5.13;;;;;;;;;;5040791;28;20423;-83
2023/08/21 01:48:34;;;;;;;7.40;4.82;;;;;;;;;;5041248;28;20435;-81
2023/08/21 01:51:02;;;;;;;7.03;4.80;;;;;;;;;;5036756;28;20489;-83
2023/08/21 01:53:29;;;;;;;5.75;5.15;;;;;;;;;;5055917;28;20458;-82
2023/08/21 01:55:56;;;;;;;9.02;8.10;;;;;;;;;;5040065;28;20463;-82
2023/08/21 01:58:24;;;;;;;19.42;17.95;;;;;;;;;;5039486;28;20437;-82
2023/08/21 02:00:51;;;;;;;9.18;8.32;;;;;;;;;;5058389;28;20521;-82
2023/08/21 02:03:18;;;;;;;5.93;5.13;;;;;;;;;;5039451;28;20656;-82
2023/08/21 02:05:45;;;;;;;5.90;5.35;;;;;;;;;;5039496;28;20439;-82
2023/08/21 02:08:13;;;;;;;5.43;4.90;;;;;;;;;;5038086;28;20441;-82
2023/08/21 02:10:50;;;;;;;7.07;4.95;;;;;;;;;;5053684;28;20480;-82
2023/08/21 02:13:18;;;;;;;6.93;5.32;;;;;;;;;;5036960;28;21709;-82
2023/08/21 02:15:49;;;;;;;8.05;5.60;;;;;;;;;;5034580;28;20516;-82
2023/08/21 02:18:16;;;;;;;5.70;5.13;;;;;;;;;;5056679;28;20427;-82
2023/08/21 02:20:43;;;;;;;7.55;5.40;;;;;;;;;;5037720;28;20961;-82
2023/08/21 02:23:11;;;;;;;8.70;5.25;;;;;;;;;;5033530;28;20936;-82
2023/08/21 02:25:38;;;;;;;7.20;5.40;;;;;;;;;;5057518;28;20954;-83
2023/08/21 02:28:06;;;;;;;8.27;6.15;;;;;;;;;;5038172;28;21055;-82
2023/08/21 02:30:33;;;;;;;7.30;6.50;;;;;;;;;;5040912;28;20461;-83
2023/08/21 02:33:00;;;;;;;12.07;6.50;;;;;;;;;;5040438;28;20436;-83
2023/08/21 02:35:28;;;;;;;7.18;5.07;;;;;;;;;;5057388;28;20418;-82
2023/08/21 02:38:02;;;;;;;7.93;5.57;;;;;;;;;;5039078;28;20957;-83
2023/08/21 02:40:29;;;;;;;10.00;5.80;;;;;;;;;;5038947;28;20423;-83
2023/08/21 02:42:57;;;;;;;7.28;5.57;;;;;;;;;;5054370;28;20428;-83
2023/08/21 02:45:24;;;;;;;9.20;5.60;;;;;;;;;;5038054;28;20779;-83
2023/08/21 02:47:55;;;;;;;6.13;5.30;;;;;;;;;;5039442;28;20481;-83
2023/08/21 02:50:22;;;;;;;7.15;5.50;;;;;;;;;;5040417;28;20427;-83
2023/08/21 02:52:49;;;;;;;6.15;5.55;;;;;;;;;;5058788;28;20435;-83
2023/08/21 02:55:16;;;;;;;6.32;5.65;;;;;;;;;;5041268;28;20454;-83
2023/08/21 02:57:44;;;;;;;11.05;9.35;;;;;;;;;;5042333;28;20488;-83
2023/08/21 03:00:12;;;;;;;9.73;8.88;;;;;;;;;;5056618;28;20436;-82
2023/08/21 03:02:42;;;;;;;8.73;5.80;;;;;;;;;;5041770;28;20430;-83
2023/08/21 03:05:11;;;;;;;7.40;5.32;;;;;;;;;;5056317;28;20537;-82
2023/08/21 03:07:39;;;;;;;8.95;5.68;;;;;;;;;;5058276;28;20435;-83
2023/08/21 03:10:07;;;;;;;8.50;6.47;;;;;;;;;;5054554;28;20848;-82
2023/08/21 03:12:34;;;;;;;9.25;5.63;;;;;;;;;;5058322;28;20429;-83
2023/08/21 03:15:02;;;;;;;8.23;6.07;;;;;;;;;;5039031;28;20489;-83
2023/08/21 03:17:30;;;;;;;7.72;6.43;;;;;;;;;;5043734;28;20435;-83
2023/08/21 03:19:57;;;;;;;9.27;6.88;;;;;;;;;;5061201;28;20447;-83
2023/08/21 03:22:24;;;;;;;9.13;6.97;;;;;;;;;;5058387;28;20998;-83
2023/08/21 03:24:51;;;;;;;7.65;5.28;;;;;;;;;;5060026;28;20436;-83
2023/08/21 03:27:19;;;;;;;5.90;5.30;;;;;;;;;;5045058;28;20464;-83
2023/08/21 03:29:48;;;;;;;7.75;5.80;;;;;;;;;;5042091;28;20465;-83
2023/08/21 03:32:16;;;;;;;6.75;6.05;;;;;;;;;;5045178;28;20550;-83
2023/08/21 03:34:46;;;;;;;10.82;6.00;;;;;;;;;;5038692;28;20472;-83
2023/08/21 03:37:14;;;;;;;9.35;6.32;;;;;;;;;;5060241;28;20671;-83
2023/08/21 03:39:41;;;;;;;11.95;10.23;;;;;;;;;;5041654;28;20531;-83
2023/08/21 03:42:08;;;;;;;8.82;5.88;;;;;;;;;;5055671;28;20850;-83
2023/08/21 03:44:36;;;;;;;6.40;5.80;;;;;;;;;;5040614;28;20431;-83
2023/08/21 03:47:03;;;;;;;7.67;5.67;;;;;;;;;;5062726;28;20474;-83
2023/08/21 03:49:30;;;;;;;6.30;5.70;;;;;;;;;;5042710;28;20435;-83
2023/08/21 03:51:57;;;;;;;7.45;6.00;;;;;;;;;;5046118;28;20431;-83
2023/08/21 03:54:24;;;;;;;7.90;6.00;;;;;;;;;;5042435;28;20511;-82
2023/08/21 03:56:51;;;;;;;7.05;5.72;;;;;;;;;;5051981;28;20427;-83
2023/08/21 03:59:20;;;;;;;12.40;5.97;;;;;;;;;;5061913;28;20490;-83
2023/08/21 04:01:47;;;;;;;7.93;6.07;;;;;;;;;;5064593;28;20440;-84
2023/08/21 04:04:14;;;;;;;7.75;5.30;;;;;;;;;;5080978;28;20949;-83
2023/08/21 04:06:41;;;;;;;9.57;6.00;;;;;;;;;;5039306;28;20428;-83
2023/08/21 04:09:11;;;;;;;8.15;5.32;;;;;;;;;;5045507;28;20908;-82
2023/08/21 04:11:38;;;;;;;7.73;5.90;;;;;;;;;;5063480;28;20879;-83
2023/08/21 04:14:06;;;;;;;7.00;6.30;;;;;;;;;;5041743;28;20428;-83
2023/08/21 04:16:33;;;;;;;6.28;5.43;;;;;;;;;;5044473;28;20492;-82
2023/08/21 04:19:00;;;;;;;6.70;6.10;;;;;;;;;;5062134;28;20433;-83
2023/08/21 04:21:28;;;;;;;8.27;6.40;;;;;;;;;;5060047;28;20435;-83
2023/08/21 04:23:55;;;;;;;9.15;6.15;;;;;;;;;;5059637;28;20431;-83
2023/08/21 04:26:22;;;;;;;11.23;7.03;;;;;;;;;;5045064;28;20439;-83
2023/08/21 04:28:49;;;;;;;9.50;6.90;;;;;;;;;;5059660;28;20483;-83
2023/08/21 04:31:16;;;;;;;9.32;7.15;;;;;;;;;;5039994;28;20537;-83
2023/08/21 04:33:43;;;;;;;8.32;6.38;;;;;;;;;;5055443;28;20450;-82
2023/08/21 04:36:17;;;;;;;8.93;6.30;;;;;;;;;;5041928;28;20840;-83
2023/08/21 04:38:45;;;;;;;7.00;6.20;;;;;;;;;;5055811;28;20784;-83
2023/08/21 04:41:12;;;;;;;9.07;6.72;;;;;;;;;;5043908;28;21540;-83
2023/08/21 04:43:39;;;;;;;11.18;6.70;;;;;;;;;;5040160;28;20463;-83
2023/08/21 04:46:06;;;;;;;8.43;6.87;;;;;;;;;;5059375;28;20435;-83
2023/08/21 04:48:34;;;;;;;10.73;7.13;;;;;;;;;;5042679;28;20436;-83
2023/08/21 04:51:01;;;;;;;9.18;6.43;;;;;;;;;;5043037;28;20439;-82
2023/08/21 04:53:29;;;;;;;7.87;5.67;;;;;;;;;;5042776;28;20431;-82
2023/08/21 04:55:59;;;;;;;7.90;5.97;;;;;;;;;;5040649;28;20458;-82
2023/08/21 04:58:28;;;;;;;8.02;5.88;;;;;;;;;;5056856;28;20500;-82
2023/08/21 05:00:59;;;;;;;7.93;6.13;;;;;;;;;;5067332;28;20480;-83
2023/08/21 05:03:27;;;;;;;8.82;6.47;;;;;;;;;;5048148;28;20428;-83
2023/08/21 05:05:55;;;;;;;9.43;6.55;;;;;;;;;;5060542;28;20493;-84
2023/08/21 05:08:23;;;;;;;10.18;6.95;;;;;;;;;;5055126;28;20435;-83
2023/08/21 05:10:57;;;;;;;8.02;6.60;;;;;;;;;;5039389;28;20447;-83
2023/08/21 05:13:25;;;;;;;12.75;6.97;;;;;;;;;;5041052;28;21192;-84
2023/08/21 05:15:56;;;;;;;8.32;6.50;;;;;;;;;;5040796;28;20527;-84
2023/08/21 05:18:24;;;;;;;8.43;6.63;;;;;;;;;;5040295;28;20489;-78
2023/08/21 05:20:54;;;;;;;9.50;6.50;;;;;;;;;;5037424;28;20921;-80
2023/08/21 05:23:21;;;;;;;8.15;6.40;;;;;;;;;;5052931;28;20427;-80
2023/08/21 05:25:49;;;;;;;9.18;6.63;;;;;;;;;;5040250;28;20428;-79
2023/08/21 05:28:16;;;;;;;8.82;6.90;;;;;;;;;;5052111;28;20535;-79
2023/08/21 05:30:43;;;;;;;9.40;6.70;;;;;;;;;;5054321;28;20498;-79
2023/08/21 05:33:11;;;;;;;8.07;6.95;;;;;;;;;;5039807;28;20917;-79
2023/08/21 05:35:38;;;;;;;8.48;6.32;;;;;;;;;;5035623;28;20556;-79
2023/08/21 05:38:10;;;;;;;10.48;6.80;;;;;;;;;;5056153;28;20458;-79
2023/08/21 05:40:37;;;;;;;10.32;6.72;;;;;;;;;;5039752;28;21042;-79
2023/08/21 05:43:05;;;;;;;10.02;6.72;;;;;;;;;;5029011;28;21194;-79
2023/08/21 05:45:32;;;;;;;6.72;6.03;;;;;;;;;;5042173;28;20516;-79
2023/08/21 05:47:59;;;;;;;6.78;6.07;;;;;;;;;;5050154;28;20444;-79
2023/08/21 05:50:26;;;;;;;10.35;6.25;;;;;;;;;;5049296;28;22905;-80
2023/08/21 05:52:57;;;;;;;7.88;6.88;;;;;;;;;;5052921;28;20463;-79
2023/08/21 05:55:24;;;;;;;7.85;6.57;;;;;;;;;;5051426;28;20436;-80
2023/08/21 05:57:55;;;;;;;8.88;6.75;;;;;;;;;;5049796;28;20432;-80
2023/08/21 06:00:22;;;;;;;6.85;6.15;;;;;;;;;;5049784;28;20432;-81
2023/08/21 06:02:49;;;;;;;8.52;6.00;;;;;;;;;;5050012;28;20431;-80
2023/08/21 06:05:17;;;;;;;6.72;5.57;;;;;;;;;;5054883;28;20440;-80
2023/08/21 06:07:44;;;;;;;6.45;5.47;;;;;;;;;;5054652;28;20944;-80
2023/08/21 06:10:14;;;;;;;6.35;5.75;;;;;;;;;;5054059;28;20957;-80
2023/08/21 06:12:42;;;;;;;7.05;6.03;;;;;;;;;;5050888;28;20443;-81
2023/08/21 06:15:09;;;;;;;6.43;5.65;;;;;;;;;;5036611;28;20435;-80
2023/08/21 06:17:37;;;;;;;7.30;6.10;;;;;;;;;;5056088;28;21296;-80
2023/08/21 06:20:11;;;;;;;6.82;5.43;;;;;;;;;;5054002;28;20987;-80
2023/08/21 06:22:38;;;;;;;7.00;5.33;;;;;;;;;;5056297;28;20436;-80
2023/08/21 06:25:06;;;;;;;6.20;5.60;;;;;;;;;;5055814;28;20431;-80
2023/08/21 06:27:36;;;;;;;5.97;5.45;;;;;;;;;;5055298;28;20871;-80
2023/08/21 06:30:22;;;;;;;8.10;5.60;;;;;;;;;;5026153;28;20573;-80
2023/08/21 06:32:49;;;;;;;6.85;5.40;;;;;;;;;;5033271;28;20978;-81
2023/08/21 06:35:17;;;;;;;5.63;5.00;;;;;;;;;;5035568;28;20945;-80
2023/08/21 06:37:44;;;;;;;5.97;5.28;;;;;;;;;;5055627;28;20427;-81
2023/08/21 06:40:12;;;;;;;6.10;5.35;;;;;;;;;;5052400;28;20431;-79
2023/08/21 06:42:42;;;;;;;8.88;6.00;;;;;;;;;;5049472;28;20439;-81
2023/08/21 06:45:10;;;;;;;6.47;5.67;;;;;;;;;;5035821;28;20871;-80
2023/08/21 06:47:37;;;;;;;7.65;5.80;;;;;;;;;;5061021;28;20436;-88
2023/08/21 06:50:04;;;;;;;6.35;5.75;;;;;;;;;;5060778;28;20423;-87
2023/08/21 06:52:32;;;;;;;6.38;5.60;;;;;;;;;;5058359;28;20431;-87
2023/08/21 06:55:02;;;;;;;6.68;5.97;;;;;;;;;;5057215;28;20540;-87
2023/08/21 06:57:29;;;;;;;8.45;5.65;;;;;;;;;;5057383;28;20944;-83
2023/08/21 06:59:56;;;;;;;7.37;5.83;;;;;;;;;;5042779;28;20520;-84
2023/08/21 07:02:23;;;;;;;10.50;5.82;;;;;;;;;;5038893;28;20427;-84
2023/08/21 07:04:51;;;;;;;4.95;4.55;;;;;;;;;;5045994;28;20490;-83
2023/08/21 07:07:18;;;;;;;7.72;5.57;;;;;;;;;;5083506;28;20432;-84
2023/08/21 07:09:48;;;;;;;5.57;5.07;;;;;;;;;;5071362;28;20431;-84
2023/08/21 07:12:22;;;;;;;5.05;4.65;;;;;;;;;;5055994;28;20432;-83
2023/08/21 07:14:52;;;;;;;5.85;5.13;;;;;;;;;;5040923;28;20437;-84
2023/08/21 07:17:19;;;;;;;6.72;5.25;;;;;;;;;;5059618;28;20440;-84
2023/08/21 07:19:49;;;;;;;7.28;4.97;;;;;;;;;;5058416;28;20462;-84
2023/08/21 07:22:16;;;;;;;5.05;4.68;;;;;;;;;;5043363;28;22419;-83
2023/08/21 07:24:43;;;;;;;6.25;4.90;;;;;;;;;;5044600;28;21034;-85
2023/08/21 07:27:10;;;;;;;6.85;4.57;;;;;;;;;;5059645;28;20496;-85
2023/08/21 07:29:37;;;;;;;5.47;4.97;;;;;;;;;;5032794;28;20831;-84
2023/08/21 07:32:05;;;;;;;6.72;5.20;;;;;;;;;;5059509;28;20926;-83
2023/08/21 07:34:32;;;;;;;5.35;4.57;;;;;;;;;;5045383;28;20431;-84
2023/08/21 07:36:59;;;;;;;5.38;4.97;;;;;;;;;;5045514;28;20431;-84
2023/08/21 07:39:26;;;;;;;5.32;4.72;;;;;;;;;;5061267;28;20434;-85
2023/08/21 07:41:53;;;;;;;7.85;7.15;;;;;;;;;;5040529;28;20539;-84
2023/08/21 07:44:21;;;;;;;4.57;4.20;;;;;;;;;;5039449;28;20443;-84
2023/08/21 07:46:51;;;;;;;5.72;4.57;;;;;;;;;;5042939;28;20433;-83
2023/08/21 07:49:18;;;;;;;6.05;5.55;;;;;;;;;;5041491;28;20518;-83
2023/08/21 07:51:46;;;;;;;6.47;5.00;;;;;;;;;;5039269;28;20439;-83
2023/08/21 07:54:13;;;;;;;6.03;4.60;;;;;;;;;;5054355;28;21594;-84
2023/08/21 07:56:40;;;;;;;6.93;4.70;;;;;;;;;;5038717;28;20913;-83
2023/08/21 07:59:08;;;;;;;5.05;4.55;;;;;;;;;;5042122;28;20462;-84
2023/08/21 08:01:35;;;;;;;7.65;4.30;;;;;;;;;;5056578;28;20459;-83
2023/08/21 08:04:02;;;;;;;4.78;4.45;;;;;;;;;;5040801;28;20489;-84
2023/08/21 08:06:33;;;;;;;5.15;4.65;;;;;;;;;;5055709;28;20442;-83
2023/08/21 08:09:00;;;;;;;6.25;4.65;;;;;;;;;;5059076;28;20792;-83
2023/08/21 08:11:27;;;;;;;5.63;4.73;;;;;;;;;;5038591;28;20552;-84
2023/08/21 08:13:55;;;;;;;5.32;4.82;;;;;;;;;;5056795;28;20438;-83
2023/08/21 08:16:22;;;;;;;5.30;4.90;;;;;;;;;;5056156;28;20427;-83
2023/08/21 08:18:50;;;;;;;9.48;5.20;;;;;;;;;;5044473;28;20789;-83
2023/08/21 08:21:17;;;;;;;17.63;13.97;;;;;;;;;;5060056;28;20463;-82
2023/08/21 08:23:44;;;;;;;5.68;4.78;;;;;;;;;;5057611;28;20431;-83
2023/08/21 08:26:12;;;;;;;5.75;4.50;;;;;;;;;;5045233;28;20915;-83
2023/08/21 08:28:39;;;;;;;25.17;22.80;;;;;;;;;;5060219;28;20520;-83
2023/08/21 08:31:06;;;;;;;5.28;4.80;;;;;;;;;;5059456;28;20857;-83
2023/08/21 08:33:33;;;;;;;5.30;4.80;;;;;;;;;;5058404;28;22447;-82
2023/08/21 08:36:01;;;;;;;6.30;5.27;;;;;;;;;;5062211;28;21263;-83
2023/08/21 08:38:28;;;;;;;6.07;5.20;;;;;;;;;;5066540;28;20437;-82
2023/08/21 08:41:02;;;;;;;5.30;4.80;;;;;;;;;;5079064;28;20487;-84
2023/08/21 08:43:30;;;;;;;5.57;4.40;;;;;;;;;;5039137;28;20481;-83
2023/08/21 08:45:59;;;;;;;4.90;4.50;;;;;;;;;;5040412;28;20441;-84
2023/08/21 08:48:26;;;;;;;5.40;4.93;;;;;;;;;;5051342;28;20530;-83
2023/08/21 08:50:54;;;;;;;5.30;4.90;;;;;;;;;;5032205;28;20510;-83
2023/08/21 08:53:25;;;;;;;5.32;4.82;;;;;;;;;;5040119;28;20443;-83
2023/08/21 08:55:53;;;;;;;6.63;5.10;;;;;;;;;;5032532;28;20997;-82
2023/08/21 08:58:23;;;;;;;5.23;4.73;;;;;;;;;;5040343;28;20534;-81
2023/08/21 09:00:50;;;;;;;5.15;4.75;;;;;;;;;;5056926;28;20789;-83
2023/08/21 09:03:18;;;;;;;5.57;4.85;;;;;;;;;;5056839;28;20423;-83
2023/08/21 09:05:45;;;;;;;7.18;4.53;;;;;;;;;;5035222;28;21078;-83
2023/08/21 09:08:13;;;;;;;5.15;4.65;;;;;;;;;;5054533;28;20515;-83
2023/08/21 09:10:41;;;;;;;5.23;4.63;;;;;;;;;;5036027;28;20441;-81
2023/08/21 09:13:12;;;;;;;5.18;4.68;;;;;;;;;;5039412;28;20440;-82
2023/08/21 09:15:39;;;;;;;6.32;4.82;;;;;;;;;;5050655;28;20467;-82
2023/08/21 09:18:11;;;;;;;6.00;4.87;;;;;;;;;;5022343;28;20434;-82
2023/08/21 09:20:48;;;;;;;7.40;5.37;;;;;;;;;;5097154;27;20395;-62
2023/08/21 09:23:16;;;;;;;5.03;4.63;;;;;;;;;;5100117;27;21119;-62
2023/08/21 09:25:46;;;;;;;5.28;4.75;;;;;;;;;;5095944;27;20980;-62
2023/08/21 09:28:13;;;;;;;5.50;5.00;;;;;;;;;;5098781;27;20521;-63
2023/08/21 09:30:45;;;;;;;9.02;5.10;;;;;;;;;;5088820;27;20423;-63
2023/08/21 09:33:12;;;;;;;5.35;4.85;;;;;;;;;;5081543;28;20515;-63
2023/08/21 09:35:42;;;;;;;6.60;4.93;;;;;;;;;;5097235;27;20532;-63
2023/08/21 09:38:10;;;;;;;5.60;4.82;;;;;;;;;;5097595;27;20532;-63
2023/08/21 09:40:44;;;;;;;5.28;4.70;;;;;;;;;;5097451;27;20429;-63
2023/08/21 09:43:11;;;;;;;6.45;5.13;;;;;;;;;;5099448;27;20425;-63
2023/08/21 09:45:39;;;;;;;6.15;4.85;;;;;;;;;;5097517;27;20452;-64
2023/08/21 09:48:07;;;;;;;5.63;5.15;;;;;;;;;;5097656;27;20428;-62
2023/08/21 09:50:34;;;;;;;5.32;4.85;;;;;;;;;;5085609;27;22407;-63
2023/08/21 09:53:02;;;;;;;6.93;5.18;;;;;;;;;;5082056;27;20455;-63
2023/08/21 09:55:29;;;;;;;6.03;5.00;;;;;;;;;;5099416;27;20507;-63
2023/08/21 09:57:59;;;;;;;4.97;4.68;;;;;;;;;;5098961;27;20535;-63
2023/08/21 10:00:30;;;;;;;5.57;4.72;;;;;;;;;;5095537;27;20437;-63
2023/08/21 10:03:00;;;;;;;5.82;5.22;;;;;;;;;;5100774;27;21046;-63
2023/08/21 10:05:27;;;;;;;26.55;24.10;;;;;;;;;;5099404;27;20479;-62
2023/08/21 10:07:59;;;;;;;4.80;4.40;;;;;;;;;;5088719;27;20439;-64
2023/08/21 10:10:26;;;;;;;4.70;4.30;;;;;;;;;;5099767;27;20433;-64
2023/08/21 10:12:53;;;;;;;9.63;5.53;;;;;;;;;;5098658;27;20427;-62
2023/08/21 10:15:20;;;;;;;5.47;4.93;;;;;;;;;;5078614;28;20407;-63
2023/08/21 10:17:48;;;;;;;4.10;3.80;;;;;;;;;;5096856;27;20464;-64
2023/08/21 10:20:30;;;;;;;4.85;4.38;;;;;;;;;;5097690;27;20429;-63
2023/08/21 10:23:02;;;;;;;5.00;4.30;;;;;;;;;;5096290;27;20429;-63
2023/08/21 10:25:29;;;;;;;5.15;4.07;;;;;;;;;;5081692;27;21441;-64
2023/08/21 10:28:04;;;;;;;5.95;4.20;;;;;;;;;;5095818;27;20453;-63
2023/08/21 10:30:32;;;;;;;4.75;4.30;;;;;;;;;;5091745;27;20483;-63
2023/08/21 10:33:00;;;;;;;4.80;4.30;;;;;;;;;;5084423;27;20514;-63
2023/08/21 10:35:31;;;;;;;3.83;3.53;;;;;;;;;;5081685;27;21120;-62
2023/08/21 10:38:16;;;;;;;4.17;3.77;;;;;;;;;;5075984;28;20426;-62
2023/08/21 10:41:02;;;;;;;3.72;3.50;;;;;;;;;;5083101;27;20519;-62
2023/08/21 10:43:43;;;;;;;4.18;3.80;;;;;;;;;;5085950;27;20531;-63
2023/08/21 10:46:11;;;;;;;3.83;3.53;;;;;;;;;;5080604;28;20432;-63
2023/08/21 10:48:39;;;;;;;3.50;3.20;;;;;;;;;;5078400;27;20425;-62
2023/08/21 10:51:07;;;;;;;3.97;3.20;;;;;;;;;;5060783;28;20540;-62
2023/08/21 10:53:35;;;;;;;3.88;3.13;;;;;;;;;;5081799;28;20872;-62
2023/08/21 10:56:03;;;;;;;2.90;2.60;;;;;;;;;;5066207;28;20425;-62
2023/08/21 10:58:57;;;;;;;2.67;2.50;;;;;;;;;;5079841;27;20433;-64
2023/08/21 11:01:24;;;;;;;2.15;2.05;;;;;;;;;;5057230;28;20439;-59
2023/08/21 11:03:51;;;;;;;2.35;2.25;;;;;;;;;;5078109;27;20445;-60
2023/08/21 11:06:19;;;;;;;4.03;2.50;;;;;;;;;;5079859;27;20457;-61
2023/08/21 11:08:47;;;;;;;2.60;2.40;;;;;;;;;;5077250;27;20424;-61
2023/08/21 11:11:14;;;;;;;2.35;2.10;;;;;;;;;;5079866;27;20439;-61
2023/08/21 11:13:41;;;;;;;4.72;2.30;;;;;;;;;;5059785;28;20428;-61
2023/08/21 11:16:09;;;;;;;4.07;2.10;;;;;;;;;;5074887;27;20425;-61
2023/08/21 11:18:40;;;;;;;3.15;2.38;;;;;;;;;;5083421;27;20428;-61
2023/08/21 11:21:08;;;;;;;2.42;2.28;;;;;;;;;;5062858;28;20514;-62
2023/08/21 11:23:42;;;;;;;2.50;2.40;;;;;;;;;;5072147;27;20862;-62
2023/08/21 11:26:12;;;;;;;2.90;2.30;;;;;;;;;;5064963;28;20562;-61
2023/08/21 11:28:48;;;;;;;2.38;2.28;;;;;;;;;;5085423;28;20424;-61
2023/08/21 11:31:17;;;;;;;3.00;2.40;;;;;;;;;;5081460;28;20505;-62
2023/08/21 11:33:50;;;;;;;2.35;2.25;;;;;;;;;;5085763;28;20904;-63
2023/08/21 11:36:18;;;;;;;2.42;2.33;;;;;;;;;;5084947;28;20436;-62
2023/08/21 11:38:58;;;;;;;2.80;2.60;;;;;;;;;;5083411;27;20433;-60
2023/08/21 11:41:26;;;;;;;2.80;2.50;;;;;;;;;;5065501;28;20431;-61
2023/08/21 11:43:53;;;;;;;;;;;;;;;;;;5070944;28;20426;-61
2023/08/21 11:46:20;;;;;;;2.28;2.17;;;;;;;;;;5073048;27;20425;-61
2023/08/21 11:48:47;;;;;;;2.22;2.03;;;;;;;;;;5080738;27;21077;-61
2023/08/21 11:51:14;;;;;;;2.10;2.00;;;;;;;;;;5081859;28;20455;-61
2023/08/21 11:53:42;;;;;;;2.20;2.10;;;;;;;;;;5082166;28;20510;-61
2023/08/21 11:56:11;;;;;;;2.40;2.20;;;;;;;;;;5080925;27;20548;-61
2023/08/21 11:58:39;;;;;;;4.57;2.45;;;;;;;;;;5087077;27;21109;-61
2023/08/21 12:01:07;;;;;;;2.40;2.20;;;;;;;;;;5080280;27;20422;-61
2023/08/21 12:03:38;;;;;;;1.73;1.60;;;;;;;;;;5071477;27;20434;-61
2023/08/21 12:06:09;;;;;;;2.15;1.85;;;;;;;;;;5081073;28;20430;-61
2023/08/21 12:08:37;;;;;;;2.15;1.77;;;;;;;;;;5080824;28;20471;-61
2023/08/21 12:11:11;;;;;;;2.17;2.07;;;;;;;;;;5081909;28;20424;-61
2023/08/21 12:13:38;;;;;;;2.45;1.92;;;;;;;;;;5080536;28;20422;-61
2023/08/21 12:16:05;;;;;;;3.25;2.00;;;;;;;;;;5082339;27;20438;-61
2023/08/21 12:18:32;;;;;;;2.30;2.10;;;;;;;;;;5080757;27;20712;-61
2023/08/21 12:21:00;;;;;;;1.75;1.70;;;;;;;;;;5066302;27;20441;-61
2023/08/21 12:23:28;;;;;;;2.10;2.00;;;;;;;;;;5081257;27;20528;-61
2023/08/21 12:25:55;;;;;;;2.70;1.60;;;;;;;;;;5082538;28;20509;-61
2023/08/21 12:28:22;;;;;;;1.52;1.42;;;;;;;;;;5082851;28;21333;-61
2023/08/21 12:30:49;;;;;;;2.05;1.70;;;;;;;;;;5084857;27;20426;-61
2023/08/21 12:33:16;;;;;;;1.45;1.40;;;;;;;;;;5081267;27;21200;-61
2023/08/21 12:35:49;;;;;;;1.30;1.30;;;;;;;;;;5083123;28;20504;-61
2023/08/21 12:38:17;;;;;;;1.60;1.50;;;;;;;;;;5070029;27;20930;-61
2023/08/21 12:40:44;;;;;;;5.30;1.83;;;;;;;;;;5081534;28;20851;-60
2023/08/21 12:43:11;;;;;;;3.55;1.63;;;;;;;;;;5066877;28;22253;-61
2023/08/21 12:45:38;;;;;;;1.50;1.40;;;;;;;;;;5081728;28;20425;-60
2023/08/21 12:48:05;;;;;;;2.85;1.70;;;;;;;;;;5081212;27;20799;-61
2023/08/21 12:50:33;;;;;;;1.50;1.48;;;;;;;;;;5064678;28;20425;-61
2023/08/21 12:53:00;;;;;;;1.80;1.48;;;;;;;;;;5078782;28;20430;-60
2023/08/21 12:55:28;;;;;;;1.73;1.40;;;;;;;;;;5069948;27;21018;-61
2023/08/21 12:57:56;;;;;;;3.38;1.48;;;;;;;;;;5081529;28;20506;-61
2023/08/21 13:00:23;;;;;;;1.50;1.40;;;;;;;;;;5082361;28;20455;-63
2023/08/21 13:02:51;;;;;;;1.60;1.50;;;;;;;;;;5063833;28;20425;-63
2023/08/21 13:05:18;;;;;;;1.90;1.10;;;;;;;;;;5083183;28;20433;-63
2023/08/21 13:07:45;;;;;;;2.95;1.30;;;;;;;;;;5078845;28;20497;-63
2023/08/21 13:10:13;;;;;;;2.50;1.20;;;;;;;;;;5085911;28;20909;-61
2023/08/21 13:12:40;;;;;;;1.23;1.00;;;;;;;;;;5083442;28;20517;-63
2023/08/21 13:15:08;;;;;;;1.43;1.23;;;;;;;;;;5080044;28;20429;-62
2023/08/21 13:17:36;;;;;;;1.20;1.10;;;;;;;;;;5079784;28;21153;-61
2023/08/21 13:20:03;;;;;;;1.60;1.10;;;;;;;;;;5083299;28;20424;-62
2023/08/21 13:22:51;;;;;;;2.50;1.03;;;;;;;;;;5084089;28;20427;-62
2023/08/21 13:25:19;;;;;;;1.13;1.13;;;;;;;;;;5063816;28;20966;-62
2023/08/21 13:27:47;;;;;;;1.60;1.10;;;;;;;;;;5083273;28;20437;-61
2023/08/21 13:30:14;;;;;;;2.33;1.40;;;;;;;;;;5083001;28;20432;-61
2023/08/21 13:32:42;;;;;;;2.25;1.45;;;;;;;;;;5078240;28;20435;-61
2023/08/21 13:35:11;;;;;;;1.40;1.20;;;;;;;;;;5075422;28;20445;-61
2023/08/21 13:37:41;;;;;;;1.50;1.40;;;;;;;;;;5075975;28;20428;-61
2023/08/21 13:40:11;;;;;;;2.90;1.20;;;;;;;;;;5075835;28;20469;-61
2023/08/21 13:42:43;;;;;;;1.35;1.25;;;;;;;;;;5067737;28;20438;-61
2023/08/21 13:45:12;;;;;;;1.58;1.48;;;;;;;;;;5074829;28;20436;-61
2023/08/21 13:47:40;;;;;;;1.60;1.50;;;;;;;;;;5070069;28;21597;-62
2023/08/21 13:50:09;;;;;;;2.40;1.40;;;;;;;;;;5071070;28;20567;-61
2023/08/21 13:52:38;;;;;;;1.60;1.50;;;;;;;;;;5072814;28;20426;-62
2023/08/21 13:55:05;;;;;;;1.60;1.50;;;;;;;;;;5072737;28;20445;-61
2023/08/21 13:57:32;;;;;;;2.80;1.58;;;;;;;;;;5073234;28;20443;-61
2023/08/21 14:00:00;;;;;;;1.48;1.40;;;;;;;;;;5073843;28;21145;-62
2023/08/21 14:02:30;;;;;;;1.50;1.50;;;;;;;;;;5070310;28;20435;-61
2023/08/21 14:04:57;;;;;;;2.20;1.50;;;;;;;;;;5071021;28;20524;-62
2023/08/21 14:07:25;;;;;;;1.60;1.50;;;;;;;;;;5078107;27;20430;-62
2023/08/21 14:09:52;;;;;;;2.53;1.60;;;;;;;;;;5071855;28;20547;-61
2023/08/21 14:12:19;;;;;;;1.60;1.50;;;;;;;;;;5076121;28;20430;-62
2023/08/21 14:14:47;;;;;;;1.50;1.40;;;;;;;;;;5073797;28;20422;-62
2023/08/21 14:17:14;;;;;;;1.73;1.63;;;;;;;;;;5077210;27;20427;-61
2023/08/21 14:19:41;;;;;;;2.03;1.40;;;;;;;;;;5078570;28;21660;-61
2023/08/21 14:22:08;;;;;;;2.00;1.50;;;;;;;;;;5077881;28;20426;-62
2023/08/21 14:24:36;;;;;;;3.60;2.20;;;;;;;;;;5076563;28;20425;-61
2023/08/21 14:27:03;;;;;;;1.63;1.52;;;;;;;;;;5053927;28;20555;-61
2023/08/21 14:29:30;;;;;;;2.75;1.67;;;;;;;;;;5075464;28;20424;-66
2023/08/21 14:31:59;;;;;;;2.10;1.60;;;;;;;;;;5073859;28;20436;-67
2023/08/21 14:34:27;;;;;;;5.70;1.95;;;;;;;;;;5056935;28;20438;-67
2023/08/21 14:36:56;;;;;;;1.60;1.50;;;;;;;;;;5060950;28;20443;-67
2023/08/21 14:39:23;;;;;;;1.80;1.50;;;;;;;;;;5063757;28;20524;-67
2023/08/21 14:41:57;;;;;;;1.48;1.48;;;;;;;;;;5073238;28;20551;-66
2023/08/21 14:44:25;;;;;;;1.80;1.63;;;;;;;;;;5058358;28;20528;-66
2023/08/21 14:46:54;;;;;;;3.10;1.60;;;;;;;;;;5074873;28;20416;-67
2023/08/21 14:49:24;;;;;;;5.07;1.60;;;;;;;;;;5072850;28;21207;-67
2023/08/21 14:51:51;;;;;;;2.30;1.58;;;;;;;;;;5076683;28;20444;-67